createdAt,value
2022-08-17T00:02:26.399Z,99.90
2022-08-17T00:04:55.414Z,99.90
2022-08-17T00:07:22.924Z,99.90
2022-08-17T00:09:49.977Z,99.90
2022-08-17T00:12:42.907Z,99.90
2022-08-17T00:15:10.418Z,99.90
2022-08-17T00:17:38.306Z,99.90
2022-08-17T00:20:06.284Z,99.90
2022-08-17T00:22:36.298Z,99.90
2022-08-17T00:25:08.507Z,99.90
2022-08-17T00:27:36.078Z,99.90
2022-08-17T00:30:05.825Z,99.90
2022-08-17T00:33:14.163Z,99.90
2022-08-17T00:35:33.862Z,99.90
2022-08-17T00:38:01.174Z,99.90
2022-08-17T00:40:39.794Z,99.90
2022-08-17T00:43:41.322Z,99.90
2022-08-17T00:46:20.476Z,99.90
2022-08-17T00:48:49.081Z,99.90
2022-08-17T00:51:43.825Z,99.90
2022-08-17T00:54:43.781Z,99.90
2022-08-17T00:57:23.204Z,99.90
2022-08-17T01:00:02.691Z,99.90
2022-08-17T01:02:36.686Z,99.90
2022-08-17T01:05:18.621Z,99.90
2022-08-17T01:07:47.719Z,99.90
2022-08-17T01:10:58.269Z,99.90
2022-08-17T01:13:04.410Z,99.90
2022-08-17T01:15:34.999Z,99.90
2022-08-17T01:18:02.722Z,99.90
2022-08-17T01:20:29.785Z,99.90
2022-08-17T01:22:57.220Z,99.90
2022-08-17T01:25:24.886Z,99.90
2022-08-17T01:27:51.957Z,99.90
2022-08-17T01:30:57.297Z,99.90
2022-08-17T01:33:06.395Z,99.90
2022-08-17T01:35:33.783Z,99.90
2022-08-17T01:38:00.812Z,99.90
2022-08-17T01:40:37.487Z,99.90
2022-08-17T01:43:15.861Z,99.90
2022-08-17T01:45:48.978Z,99.90
2022-08-17T01:48:33.472Z,99.90
2022-08-17T01:51:01.315Z,99.90
2022-08-17T01:53:34.913Z,99.90
2022-08-17T01:56:07.876Z,99.90
2022-08-17T01:58:36.175Z,99.90
2022-08-17T02:01:05.440Z,99.90
2022-08-17T02:03:34.498Z,99.90
2022-08-17T02:06:02.457Z,99.90
2022-08-17T02:08:38.984Z,99.90
2022-08-17T02:11:11.390Z,99.90
2022-08-17T02:13:39.489Z,99.90
2022-08-17T02:16:06.835Z,99.90
2022-08-17T02:18:33.969Z,99.90
2022-08-17T02:21:01.367Z,99.90
2022-08-17T02:23:32.222Z,99.90
2022-08-17T02:26:01.057Z,99.90
2022-08-17T02:28:28.983Z,99.90
2022-08-17T02:31:01.817Z,99.90
2022-08-17T02:33:41.680Z,99.90
2022-08-17T02:36:12.757Z,99.90
2022-08-17T02:38:41.095Z,99.90
2022-08-17T02:41:09.203Z,99.90
2022-08-17T02:43:36.239Z,99.90
2022-08-17T02:46:03.895Z,99.90
2022-08-17T02:48:32.040Z,99.90
2022-08-17T02:51:00.730Z,99.90
2022-08-17T02:53:35.512Z,99.90
2022-08-17T02:56:04.169Z,99.90
2022-08-17T02:58:34.593Z,99.90
2022-08-17T03:01:05.441Z,99.90
2022-08-17T03:03:33.252Z,99.90
2022-08-17T03:06:00.984Z,99.90
2022-08-17T03:08:28.212Z,99.90
2022-08-17T03:10:56.011Z,99.90
2022-08-17T03:13:23.466Z,99.90
2022-08-17T03:15:50.799Z,99.90
2022-08-17T03:18:25.066Z,99.90
2022-08-17T03:20:58.466Z,99.90
2022-08-17T03:23:27.305Z,99.90
2022-08-17T03:25:55.639Z,99.90
2022-08-17T03:28:23.644Z,99.90
2022-08-17T03:30:51.766Z,99.90
2022-08-17T03:33:19.860Z,99.90
2022-08-17T03:35:47.425Z,99.90
2022-08-17T03:38:15.937Z,99.90
2022-08-17T03:40:59.147Z,99.90
2022-08-17T03:43:31.992Z,99.90
2022-08-17T03:46:01.273Z,99.90
2022-08-17T03:48:28.914Z,99.90
2022-08-17T03:50:57.351Z,99.90
2022-08-17T03:53:24.360Z,99.90
2022-08-17T03:55:51.765Z,99.90
2022-08-17T03:58:18.849Z,99.90
2022-08-17T04:00:45.961Z,99.90
2022-08-17T04:03:13.700Z,99.90
2022-08-17T04:05:41.451Z,99.90
2022-08-17T04:08:09.388Z,99.90
2022-08-17T04:10:41.386Z,99.90
2022-08-17T04:13:12.916Z,99.90
2022-08-17T04:15:40.436Z,99.90
2022-08-17T04:18:07.721Z,99.90
2022-08-17T04:20:38.143Z,99.90
2022-08-17T04:23:14.419Z,99.90
2022-08-17T04:25:47.319Z,99.90
2022-08-17T04:28:16.234Z,99.90
2022-08-17T04:30:45.245Z,99.90
2022-08-17T04:33:16.612Z,99.90
2022-08-17T04:35:50.871Z,99.90
2022-08-17T04:38:23.227Z,99.90
2022-08-17T04:40:51.380Z,99.90
2022-08-17T04:43:21.758Z,99.90
2022-08-17T04:45:57.864Z,99.90
2022-08-17T04:48:29.801Z,99.90
2022-08-17T04:51:07.534Z,99.90
2022-08-17T04:53:35.194Z,99.90
2022-08-17T04:56:02.274Z,99.90
2022-08-17T04:58:29.596Z,99.90
2022-08-17T05:00:56.909Z,99.90
2022-08-17T05:03:23.992Z,99.90
2022-08-17T05:05:51.195Z,99.90
2022-08-17T05:08:19.841Z,99.90
2022-08-17T05:10:47.733Z,99.90
2022-08-17T05:13:25.866Z,99.90
2022-08-17T05:15:59.584Z,99.90
2022-08-17T05:18:30.049Z,99.90
2022-08-17T05:20:57.535Z,99.90
2022-08-17T05:23:37.830Z,99.90
2022-08-17T05:26:21.956Z,99.90
2022-08-17T05:28:56.978Z,99.90
2022-08-17T05:31:26.095Z,99.90
2022-08-17T05:33:53.173Z,99.90
2022-08-17T05:36:43.063Z,99.90
2022-08-17T05:39:07.749Z,99.90
2022-08-17T05:41:34.927Z,99.90
2022-08-17T05:44:05.324Z,99.90
2022-08-17T05:46:40.163Z,99.90
2022-08-17T05:49:08.548Z,99.90
2022-08-17T05:51:44.243Z,99.90
2022-08-17T05:54:29.926Z,99.90
2022-08-17T05:57:09.114Z,99.90
2022-08-17T05:59:44.519Z,99.90
2022-08-17T06:02:43.065Z,99.90
2022-08-17T06:05:29.021Z,99.90
2022-08-17T06:08:18.863Z,99.90
2022-08-17T06:11:04.743Z,99.90
2022-08-17T06:13:41.320Z,99.90
2022-08-17T06:16:33.246Z,99.90
2022-08-17T06:19:05.037Z,99.90
2022-08-17T06:21:39.419Z,99.90
2022-08-17T06:24:31.523Z,99.90
2022-08-17T06:27:10.044Z,99.60
2022-08-17T06:30:05.990Z,99.90
2022-08-17T06:32:34.453Z,99.00
2022-08-17T06:35:02.912Z,97.40
2022-08-17T06:38:00.470Z,97.40
2022-08-17T06:40:51.231Z,96.70
2022-08-17T06:43:55.613Z,96.20
2022-08-17T06:46:53.035Z,94.60
2022-08-17T06:49:34.053Z,93.30
2022-08-17T06:52:45.607Z,92.20
2022-08-17T06:55:22.563Z,90.20
2022-08-17T06:57:53.494Z,87.60
2022-08-17T07:00:27.948Z,83.00
2022-08-17T07:03:06.145Z,83.60
2022-08-17T07:05:38.801Z,83.30
2022-08-17T07:08:18.124Z,82.00
2022-08-17T07:10:55.547Z,78.50
2022-08-17T07:13:38.130Z,74.60
2022-08-17T07:16:17.094Z,74.70
2022-08-17T07:18:44.713Z,74.40
2022-08-17T07:21:29.703Z,73.70
2022-08-17T07:24:26.240Z,73.40
2022-08-17T07:27:07.445Z,73.70
2022-08-17T07:29:41.623Z,75.50
2022-08-17T07:32:13.827Z,71.00
2022-08-17T07:34:59.870Z,68.40
2022-08-17T07:37:27.125Z,68.90
2022-08-17T07:40:15.428Z,67.30
2022-08-17T07:42:46.536Z,68.60
2022-08-17T07:45:15.081Z,69.00
2022-08-17T07:47:51.638Z,69.00
2022-08-17T07:50:29.410Z,67.40
2022-08-17T07:52:57.000Z,67.40
2022-08-17T07:55:30.918Z,68.50
2022-08-17T07:57:59.801Z,69.40
2022-08-17T08:00:32.501Z,67.20
2022-08-17T08:03:11.538Z,68.40
2022-08-17T08:05:52.763Z,68.90
2022-08-17T08:08:28.634Z,67.50
2022-08-17T08:11:03.175Z,67.50
2022-08-17T08:13:31.206Z,65.70
2022-08-17T08:16:19.574Z,66.10
2022-08-17T08:18:55.317Z,64.20
2022-08-17T08:21:28.321Z,63.10
2022-08-17T08:24:17.280Z,65.20
2022-08-17T08:26:54.141Z,64.40
2022-08-17T08:29:52.252Z,63.70
2022-08-17T08:32:47.689Z,65.30
2022-08-17T08:35:24.776Z,66.30
2022-08-17T08:38:10.830Z,63.40
2022-08-17T08:41:09.139Z,62.80
2022-08-17T08:43:36.465Z,63.70
2022-08-17T08:46:36.285Z,63.70
2022-08-17T08:49:18.395Z,64.40
2022-08-17T08:52:00.972Z,63.60
2022-08-17T08:54:37.668Z,63.20
2022-08-17T08:57:33.699Z,62.90
2022-08-17T09:00:20.300Z,63.70
2022-08-17T09:03:14.658Z,64.60
2022-08-17T09:05:56.959Z,64.80
2022-08-17T09:08:33.170Z,64.00
2022-08-17T09:11:14.022Z,64.70
2022-08-17T09:13:56.289Z,65.10
2022-08-17T09:16:36.746Z,65.20
2022-08-17T09:19:17.060Z,68.50
2022-08-17T09:21:51.798Z,65.50
2022-08-17T09:24:33.293Z,66.80
2022-08-17T09:27:11.392Z,67.50
2022-08-17T09:29:44.415Z,67.00
2022-08-17T09:32:33.074Z,65.80
2022-08-17T09:35:12.042Z,65.80
2022-08-17T09:37:57.856Z,66.00
2022-08-17T09:40:30.504Z,66.90
2022-08-17T09:43:18.889Z,67.30
2022-08-17T09:45:51.871Z,67.90
2022-08-17T09:48:32.926Z,67.20
2022-08-17T09:51:28.921Z,67.20
2022-08-17T09:54:09.516Z,67.30
2022-08-17T09:57:25.922Z,66.80
2022-08-17T10:00:15.984Z,67.40
2022-08-17T10:02:55.046Z,68.70
2022-08-17T10:05:43.394Z,69.00
2022-08-17T10:08:25.879Z,69.40
2022-08-17T10:11:15.768Z,69.90
2022-08-17T10:14:24.137Z,70.20
2022-08-17T10:17:20.659Z,69.30
2022-08-17T10:20:10.936Z,70.40
2022-08-17T10:22:53.373Z,70.20
2022-08-17T10:25:26.178Z,70.60
2022-08-17T10:28:06.838Z,70.30
2022-08-17T10:30:50.374Z,70.70
2022-08-17T10:33:40.359Z,71.50
2022-08-17T10:36:19.525Z,70.50
2022-08-17T10:38:48.329Z,70.40
2022-08-17T10:41:18.281Z,71.30
2022-08-17T10:54:26.513Z,71.10
2022-08-17T10:56:56.753Z,72.40
2022-08-17T10:59:36.521Z,72.70
2022-08-17T11:02:11.384Z,72.90
2022-08-17T11:04:57.095Z,73.00
2022-08-17T11:08:02.204Z,73.40
2022-08-17T11:11:03.486Z,73.50
2022-08-17T11:14:05.981Z,74.10
2022-08-17T11:16:53.360Z,73.40
2022-08-17T11:19:35.613Z,73.30
2022-08-17T11:22:16.421Z,72.90
2022-08-17T11:24:50.720Z,72.90
2022-08-17T11:27:28.944Z,73.30
2022-08-17T11:30:02.720Z,73.00
2022-08-17T11:32:35.139Z,76.10
2022-08-17T11:35:11.167Z,75.80
2022-08-17T11:37:56.989Z,74.80
2022-08-17T11:40:42.859Z,76.00
2022-08-17T11:43:42.894Z,73.70
2022-08-17T11:46:20.310Z,73.30
2022-08-17T11:48:53.005Z,74.30
2022-08-17T11:51:23.400Z,73.10
2022-08-17T11:53:50.548Z,73.40
2022-08-17T11:56:39.430Z,72.80
2022-08-17T11:59:31.812Z,73.10
2022-08-17T12:02:00.913Z,72.70
2022-08-17T12:04:34.356Z,71.90
2022-08-17T12:07:14.150Z,71.90
2022-08-17T12:09:45.468Z,72.90
2022-08-17T12:12:22.790Z,73.50
2022-08-17T12:15:10.218Z,73.70
2022-08-17T12:17:40.502Z,73.60
2022-08-17T12:20:42.659Z,73.70
2022-08-17T12:23:27.933Z,72.90
2022-08-17T12:26:19.918Z,73.20
2022-08-17T12:28:50.145Z,73.40
2022-08-17T12:31:27.142Z,74.10
2022-08-17T12:33:54.428Z,71.30
2022-08-17T12:36:27.032Z,70.90
2022-08-17T12:38:56.203Z,72.00
2022-08-17T12:41:40.557Z,71.50
2022-08-17T12:44:27.425Z,72.10
2022-08-17T12:47:21.570Z,71.00
2022-08-17T12:49:52.561Z,70.90
2022-08-17T12:52:19.914Z,71.30
2022-08-17T12:55:03.813Z,72.50
2022-08-17T12:57:39.395Z,73.00
2022-08-17T13:00:20.199Z,73.10
2022-08-17T13:03:14.843Z,72.90
2022-08-17T13:05:53.841Z,72.60
2022-08-17T13:08:34.838Z,73.30
2022-08-17T13:11:04.746Z,73.70
2022-08-17T13:13:35.246Z,73.40
2022-08-17T13:16:14.783Z,72.50
2022-08-17T13:18:45.212Z,71.30
2022-08-17T13:21:20.925Z,71.80
2022-08-17T13:24:04.466Z,72.60
2022-08-17T13:26:36.796Z,71.30
2022-08-17T13:29:16.666Z,72.00
2022-08-17T13:31:52.379Z,70.80
2022-08-17T13:34:24.035Z,71.30
2022-08-17T13:37:33.391Z,71.50
2022-08-17T13:40:09.367Z,70.50
2022-08-17T13:42:51.822Z,70.80
2022-08-17T13:45:36.291Z,71.40
2022-08-17T13:48:15.729Z,71.40
2022-08-17T13:50:52.097Z,72.00
2022-08-17T13:53:36.041Z,72.40
2022-08-17T13:56:33.344Z,72.60
2022-08-17T13:59:06.896Z,72.60
2022-08-17T14:01:52.784Z,72.00
2022-08-17T14:04:27.559Z,72.10
2022-08-17T14:06:54.938Z,72.30
2022-08-17T14:09:25.781Z,71.70
2022-08-17T14:11:54.623Z,71.90
2022-08-17T14:14:22.642Z,71.60
2022-08-17T14:16:51.292Z,71.10
2022-08-17T14:19:19.129Z,71.30
2022-08-17T14:21:47.210Z,71.80
2022-08-17T14:24:21.910Z,71.70
2022-08-17T14:26:51.087Z,71.40
2022-08-17T14:29:19.134Z,71.80
2022-08-17T14:31:53.313Z,71.80
2022-08-17T14:34:23.309Z,71.90
2022-08-17T14:36:51.033Z,71.70
2022-08-17T14:39:19.102Z,71.90
2022-08-17T14:41:47.095Z,71.70
2022-08-17T14:44:14.697Z,71.80
2022-08-17T14:46:43.300Z,71.80
2022-08-17T14:49:12.933Z,73.00
2022-08-17T14:51:43.766Z,72.70
2022-08-17T14:54:33.086Z,72.30
2022-08-17T14:57:02.932Z,72.90
2022-08-17T14:59:54.909Z,72.50
2022-08-17T15:02:27.960Z,72.30
2022-08-17T15:05:03.970Z,72.20
2022-08-17T15:07:31.628Z,72.20
2022-08-17T15:10:01.232Z,72.80
2022-08-17T15:12:33.349Z,72.40
2022-08-17T15:15:04.849Z,71.80
2022-08-17T15:17:55.000Z,72.40
2022-08-17T15:20:26.298Z,72.40
2022-08-17T15:22:53.922Z,73.10
2022-08-17T15:25:21.716Z,72.30
2022-08-17T15:27:49.146Z,72.60
2022-08-17T15:30:16.990Z,72.90
2022-08-17T15:32:51.053Z,72.50
2022-08-17T15:35:28.234Z,72.60
2022-08-17T15:37:58.764Z,74.10
2022-08-17T15:40:38.785Z,79.30
2022-08-17T15:43:14.240Z,77.10
2022-08-17T15:45:43.051Z,78.00
2022-08-17T15:48:10.532Z,78.50
2022-08-17T15:50:37.975Z,77.80
2022-08-17T15:53:05.454Z,78.60
2022-08-17T15:55:33.709Z,79.20
2022-08-17T15:58:01.024Z,79.60
2022-08-17T16:00:28.357Z,79.30
2022-08-17T16:03:46.741Z,81.10
2022-08-17T16:05:44.099Z,81.20
2022-08-17T16:08:18.511Z,81.20
2022-08-17T16:10:49.790Z,79.90
2022-08-17T16:13:18.952Z,79.60
2022-08-17T16:15:56.726Z,80.00
2022-08-17T16:18:29.755Z,79.70
2022-08-17T16:21:05.207Z,80.60
2022-08-17T16:23:32.504Z,78.80
2022-08-17T16:25:59.678Z,78.80
2022-08-17T16:28:35.717Z,80.10
2022-08-17T16:31:05.232Z,80.90
2022-08-17T16:33:35.634Z,81.00
2022-08-17T16:36:02.795Z,82.10
2022-08-17T16:38:30.248Z,80.80
2022-08-17T16:40:57.293Z,81.10
2022-08-17T16:43:24.381Z,80.30
2022-08-17T16:45:52.323Z,80.00
2022-08-17T16:48:19.419Z,81.70
2022-08-17T16:50:58.609Z,82.90
2022-08-17T16:53:31.434Z,83.10
2022-08-17T16:55:58.481Z,80.90
2022-08-17T16:58:25.510Z,81.20
2022-08-17T17:00:52.999Z,83.20
2022-08-17T17:03:25.870Z,84.30
2022-08-17T17:05:58.762Z,83.00
2022-08-17T17:08:45.723Z,83.30
2022-08-17T17:11:23.114Z,82.20
2022-08-17T17:13:59.527Z,82.00
2022-08-17T17:16:44.841Z,82.90
2022-08-17T17:19:37.088Z,82.00
2022-08-17T17:22:45.936Z,83.10
2022-08-17T17:25:31.692Z,82.20
2022-08-17T17:28:02.077Z,82.50
2022-08-17T17:30:56.637Z,83.30
2022-08-17T17:34:05.686Z,84.50
2022-08-17T17:36:36.030Z,84.80
2022-08-17T17:39:17.845Z,85.20
2022-08-17T17:41:47.850Z,85.70
2022-08-17T17:44:19.805Z,85.70
2022-08-17T17:46:58.699Z,86.80
2022-08-17T17:49:34.252Z,88.10
2022-08-17T17:52:15.626Z,87.90
2022-08-17T17:55:02.904Z,87.90
2022-08-17T17:57:30.119Z,89.10
2022-08-17T18:00:18.381Z,89.40
2022-08-17T18:03:03.694Z,90.30
2022-08-17T18:05:52.065Z,90.50
2022-08-17T18:08:32.207Z,91.10
2022-08-17T18:11:24.470Z,91.30
2022-08-17T18:14:12.716Z,91.60
2022-08-17T18:16:40.373Z,92.10
2022-08-17T18:19:15.927Z,92.10
2022-08-17T18:21:48.942Z,92.50
2022-08-17T18:24:38.592Z,92.80
2022-08-17T18:27:31.671Z,94.10
2022-08-17T18:30:05.754Z,94.50
2022-08-17T18:32:44.359Z,95.20
2022-08-17T18:35:11.543Z,95.90
2022-08-17T18:37:41.848Z,96.60
2022-08-17T18:40:36.655Z,97.50
2022-08-17T18:43:26.856Z,98.50
2022-08-17T18:45:56.966Z,99.50
2022-08-17T18:48:28.882Z,99.90
2022-08-17T18:51:04.127Z,99.90
2022-08-17T18:53:43.403Z,99.90
2022-08-17T18:56:22.661Z,99.90
2022-08-17T18:59:12.003Z,99.90
2022-08-17T19:02:09.973Z,99.90
2022-08-17T19:04:54.557Z,99.90
2022-08-17T19:07:21.905Z,99.90
2022-08-17T19:09:58.307Z,99.90
2022-08-17T19:12:49.319Z,99.90
2022-08-17T19:15:23.049Z,99.90
2022-08-17T19:18:02.433Z,99.90
2022-08-17T19:20:35.562Z,99.90
2022-08-17T19:23:10.489Z,99.90
2022-08-17T19:25:44.397Z,99.90
2022-08-17T19:28:23.701Z,99.90
2022-08-17T19:30:57.739Z,99.90
2022-08-17T19:33:25.842Z,99.90
2022-08-17T19:36:28.705Z,99.90
2022-08-17T19:39:20.999Z,99.90
2022-08-17T19:42:20.210Z,99.90
2022-08-17T19:45:07.942Z,99.90
2022-08-17T19:48:00.519Z,99.90
2022-08-17T19:50:29.911Z,99.90
2022-08-17T19:53:41.703Z,99.90
2022-08-17T19:56:22.701Z,99.90
2022-08-17T19:58:58.785Z,99.90
2022-08-17T20:01:47.613Z,99.90
2022-08-17T20:04:39.021Z,99.90
2022-08-17T20:07:29.206Z,99.90
2022-08-17T20:10:06.836Z,99.90
2022-08-17T20:12:38.105Z,99.90
2022-08-17T20:15:10.726Z,99.90
2022-08-17T20:17:46.256Z,99.90
2022-08-17T20:20:23.306Z,99.90
2022-08-17T20:22:57.921Z,99.90
2022-08-17T20:25:42.425Z,99.90
2022-08-17T20:28:29.033Z,99.90
2022-08-17T20:30:57.438Z,99.90
2022-08-17T20:33:36.034Z,99.90
2022-08-17T20:36:20.039Z,99.90
2022-08-17T20:38:54.694Z,99.90
2022-08-17T20:41:31.149Z,99.90
2022-08-17T20:43:58.147Z,99.90
2022-08-17T20:46:37.507Z,99.90
2022-08-17T20:49:26.063Z,99.90
2022-08-17T20:52:12.007Z,99.90
2022-08-17T20:54:54.424Z,99.90
2022-08-17T20:57:45.817Z,99.90
2022-08-17T21:00:33.086Z,99.90
2022-08-17T21:03:19.215Z,99.90
2022-08-17T21:06:00.331Z,99.90
2022-08-17T21:08:32.779Z,99.90
2022-08-17T21:11:16.279Z,99.90
2022-08-17T21:14:34.293Z,99.90
2022-08-17T21:17:07.242Z,99.90
2022-08-17T21:19:48.969Z,99.90
2022-08-17T21:22:33.275Z,99.90
2022-08-17T21:25:28.337Z,99.90
2022-08-17T21:28:02.206Z,99.90
2022-08-17T21:30:29.379Z,99.90
2022-08-17T21:33:21.499Z,99.90
2022-08-17T21:35:59.301Z,99.90
2022-08-17T21:38:57.947Z,99.90
2022-08-17T21:41:31.195Z,99.90
2022-08-17T21:44:04.910Z,99.90
2022-08-17T21:46:37.409Z,99.90
2022-08-17T21:49:13.510Z,99.90
2022-08-17T21:51:51.091Z,99.90
2022-08-17T21:54:21.120Z,99.90
2022-08-17T21:56:48.985Z,99.90
2022-08-17T21:59:19.039Z,99.90
2022-08-17T22:01:58.441Z,99.90
2022-08-17T22:04:34.607Z,99.90
2022-08-17T22:07:05.336Z,99.90
2022-08-17T22:09:55.116Z,99.90
2022-08-17T22:12:23.629Z,99.90
2022-08-17T22:15:01.487Z,99.90
2022-08-17T22:17:37.432Z,99.90
2022-08-17T22:20:13.127Z,99.90
2022-08-17T22:23:00.150Z,99.90
2022-08-17T22:25:28.522Z,99.90
2022-08-17T22:27:59.101Z,99.90
2022-08-17T22:30:41.193Z,99.90
2022-08-17T22:33:33.576Z,99.90
2022-08-17T22:36:12.055Z,99.90
2022-08-17T22:38:41.499Z,99.90
2022-08-17T22:41:23.096Z,99.90
2022-08-17T22:43:52.050Z,99.90
2022-08-17T22:46:22.307Z,99.90
2022-08-17T22:48:53.790Z,99.90
2022-08-17T22:51:23.952Z,99.90
2022-08-17T22:53:54.930Z,99.90
2022-08-17T22:56:25.032Z,99.90
2022-08-17T22:58:59.227Z,99.90
2022-08-17T23:01:32.700Z,99.90
2022-08-17T23:04:03.098Z,99.90
2022-08-17T23:06:32.137Z,99.90
2022-08-17T23:08:59.943Z,99.90
2022-08-17T23:11:36.933Z,99.90
2022-08-17T23:14:16.667Z,99.90
2022-08-17T23:16:43.835Z,99.90
2022-08-17T23:19:14.088Z,99.90
2022-08-17T23:21:42.621Z,99.90
2022-08-17T23:24:10.948Z,99.90
2022-08-17T23:26:38.137Z,99.90
2022-08-17T23:29:05.925Z,99.90
2022-08-17T23:31:34.257Z,99.90
2022-08-17T23:34:03.135Z,99.90
2022-08-17T23:36:31.052Z,99.90
2022-08-17T23:38:58.297Z,99.90
2022-08-17T23:41:29.107Z,99.90
2022-08-17T23:43:56.350Z,99.90
2022-08-17T23:46:23.540Z,99.90
2022-08-17T23:48:51.313Z,99.90
2022-08-17T23:51:23.630Z,99.90
2022-08-17T23:53:55.756Z,99.90
2022-08-17T23:56:22.994Z,99.90
2022-08-17T23:58:51.459Z,99.90
